sensor_id;sensor_type;location;lat;lon;timestamp;temperature;humidity
2447;DHT22;26430;48.818;9.244;2023-03-02T00:02:02;2.70;99.90
2447;DHT22;26430;48.818;9.244;2023-03-02T00:04:45;2.70;99.90
2447;DHT22;26430;48.818;9.244;2023-03-02T00:07:16;2.70;99.90
2447;DHT22;26430;48.818;9.244;2023-03-02T00:09:44;2.50;99.90
2447;DHT22;26430;48.818;9.244;2023-03-02T00:12:10;2.50;99.90
2447;DHT22;26430;48.818;9.244;2023-03-02T00:14:35;2.30;99.90
2447;DHT22;26430;48.818;9.244;2023-03-02T00:17:03;2.30;99.90
2447;DHT22;26430;48.818;9.244;2023-03-02T00:19:30;2.20;99.90
2447;DHT22;26430;48.818;9.244;2023-03-02T00:21:56;2.10;99.90
2447;DHT22;26430;48.818;9.244;2023-03-02T00:24:21;2.10;99.90
2447;DHT22;26430;48.818;9.244;2023-03-02T00:26:47;2.10;99.90
2447;DHT22;26430;48.818;9.244;2023-03-02T00:29:12;2.00;99.90
2447;DHT22;26430;48.818;9.244;2023-03-02T00:31:38;2.00;99.90
2447;DHT22;26430;48.818;9.244;2023-03-02T00:34:04;2.00;99.90
2447;DHT22;26430;48.818;9.244;2023-03-02T00:36:29;2.00;99.90
2447;DHT22;26430;48.818;9.244;2023-03-02T00:38:55;2.00;99.90
2447;DHT22;26430;48.818;9.244;2023-03-02T00:41:22;2.00;99.90
2447;DHT22;26430;48.818;9.244;2023-03-02T00:43:49;2.10;99.90
2447;DHT22;26430;48.818;9.244;2023-03-02T00:46:18;2.10;99.90
2447;DHT22;26430;48.818;9.244;2023-03-02T00:48:44;2.10;99.90
2447;DHT22;26430;48.818;9.244;2023-03-02T00:51:11;2.10;99.90
2447;DHT22;26430;48.818;9.244;2023-03-02T00:53:37;2.10;99.90
2447;DHT22;26430;48.818;9.244;2023-03-02T00:56:03;2.00;99.90
2447;DHT22;26430;48.818;9.244;2023-03-02T00:58:30;2.10;99.90
2447;DHT22;26430;48.818;9.244;2023-03-02T01:00:57;2.10;99.90
2447;DHT22;26430;48.818;9.244;2023-03-02T01:03:23;2.30;99.90
2447;DHT22;26430;48.818;9.244;2023-03-02T01:05:49;2.20;99.90
2447;DHT22;26430;48.818;9.244;2023-03-02T01:08:20;2.20;99.90
2447;DHT22;26430;48.818;9.244;2023-03-02T01:10:45;2.20;99.90
2447;DHT22;26430;48.818;9.244;2023-03-02T01:13:11;2.20;99.90
2447;DHT22;26430;48.818;9.244;2023-03-02T01:15:37;2.20;99.90
2447;DHT22;26430;48.818;9.244;2023-03-02T01:18:03;2.20;99.90
2447;DHT22;26430;48.818;9.244;2023-03-02T01:20:29;2.00;99.90
2447;DHT22;26430;48.818;9.244;2023-03-02T01:22:55;2.00;99.90
2447;DHT22;26430;48.818;9.244;2023-03-02T01:25:21;1.90;99.90
2447;DHT22;26430;48.818;9.244;2023-03-02T01:27:47;1.90;99.90
2447;DHT22;26430;48.818;9.244;2023-03-02T01:30:13;1.80;99.90
2447;DHT22;26430;48.818;9.244;2023-03-02T01:32:39;1.70;99.90
2447;DHT22;26430;48.818;9.244;2023-03-02T01:35:05;1.70;99.90
2447;DHT22;26430;48.818;9.244;2023-03-02T01:37:30;1.70;99.90
2447;DHT22;26430;48.818;9.244;2023-03-02T01:39:56;1.60;99.90
2447;DHT22;26430;48.818;9.244;2023-03-02T01:42:22;1.60;99.90
2447;DHT22;26430;48.818;9.244;2023-03-02T01:44:53;1.60;99.90
2447;DHT22;26430;48.818;9.244;2023-03-02T01:47:38;1.60;99.90
2447;DHT22;26430;48.818;9.244;2023-03-02T01:50:24;1.60;99.90
2447;DHT22;26430;48.818;9.244;2023-03-02T01:52:52;1.50;99.90
2447;DHT22;26430;48.818;9.244;2023-03-02T01:55:22;1.50;99.90
2447;DHT22;26430;48.818;9.244;2023-03-02T01:57:50;1.40;99.90
2447;DHT22;26430;48.818;9.244;2023-03-02T02:00:24;1.40;99.90
2447;DHT22;26430;48.818;9.244;2023-03-02T02:02:52;1.40;99.90
2447;DHT22;26430;48.818;9.244;2023-03-02T02:05:22;1.40;99.90
2447;DHT22;26430;48.818;9.244;2023-03-02T02:07:48;1.30;99.90
2447;DHT22;26430;48.818;9.244;2023-03-02T02:10:14;1.40;99.90
2447;DHT22;26430;48.818;9.244;2023-03-02T02:12:40;1.40;99.90
2447;DHT22;26430;48.818;9.244;2023-03-02T02:15:06;1.40;99.90
2447;DHT22;26430;48.818;9.244;2023-03-02T02:17:32;1.40;99.90
2447;DHT22;26430;48.818;9.244;2023-03-02T02:20:22;1.40;99.90
2447;DHT22;26430;48.818;9.244;2023-03-02T02:25:51;1.50;99.90
2447;DHT22;26430;48.818;9.244;2023-03-02T02:28:59;1.70;99.90
2447;DHT22;26430;48.818;9.244;2023-03-02T02:31:45;1.80;99.90
2447;DHT22;26430;48.818;9.244;2023-03-02T02:37:00;1.90;99.90
2447;DHT22;26430;48.818;9.244;2023-03-02T02:39:30;2.00;99.90
2447;DHT22;26430;48.818;9.244;2023-03-02T02:42:02;1.90;99.90
2447;DHT22;26430;48.818;9.244;2023-03-02T02:44:28;1.90;99.90
2447;DHT22;26430;48.818;9.244;2023-03-02T02:46:54;2.10;99.90
2447;DHT22;26430;48.818;9.244;2023-03-02T02:49:30;2.20;99.90
2447;DHT22;26430;48.818;9.244;2023-03-02T02:51:57;2.10;99.90
2447;DHT22;26430;48.818;9.244;2023-03-02T02:54:23;1.90;99.90
2447;DHT22;26430;48.818;9.244;2023-03-02T02:56:49;1.70;99.90
2447;DHT22;26430;48.818;9.244;2023-03-02T02:59:22;1.60;99.90
2447;DHT22;26430;48.818;9.244;2023-03-02T03:01:48;1.40;99.90
2447;DHT22;26430;48.818;9.244;2023-03-02T03:04:21;1.30;99.90
2447;DHT22;26430;48.818;9.244;2023-03-02T03:06:54;1.20;99.90
2447;DHT22;26430;48.818;9.244;2023-03-02T03:09:20;1.20;99.90
2447;DHT22;26430;48.818;9.244;2023-03-02T03:11:49;1.10;99.90
2447;DHT22;26430;48.818;9.244;2023-03-02T03:14:18;1.10;99.90
2447;DHT22;26430;48.818;9.244;2023-03-02T03:16:47;1.10;99.90
2447;DHT22;26430;48.818;9.244;2023-03-02T03:19:25;1.20;99.90
2447;DHT22;26430;48.818;9.244;2023-03-02T03:21:54;1.10;99.90
2447;DHT22;26430;48.818;9.244;2023-03-02T03:24:20;1.20;99.90
2447;DHT22;26430;48.818;9.244;2023-03-02T03:26:46;1.30;99.90
2447;DHT22;26430;48.818;9.244;2023-03-02T03:29:14;1.40;99.90
2447;DHT22;26430;48.818;9.244;2023-03-02T03:31:40;1.40;99.90
2447;DHT22;26430;48.818;9.244;2023-03-02T03:34:06;1.40;99.90
2447;DHT22;26430;48.818;9.244;2023-03-02T03:36:32;1.40;99.90
2447;DHT22;26430;48.818;9.244;2023-03-02T03:38:58;1.40;99.90
2447;DHT22;26430;48.818;9.244;2023-03-02T03:41:24;1.40;99.90
2447;DHT22;26430;48.818;9.244;2023-03-02T03:43:50;1.40;99.90
2447;DHT22;26430;48.818;9.244;2023-03-02T03:46:16;1.40;99.90
2447;DHT22;26430;48.818;9.244;2023-03-02T03:48:42;1.50;99.90
2447;DHT22;26430;48.818;9.244;2023-03-02T03:51:08;1.50;99.90
2447;DHT22;26430;48.818;9.244;2023-03-02T03:53:34;1.60;99.90
2447;DHT22;26430;48.818;9.244;2023-03-02T03:56:00;1.60;99.90
2447;DHT22;26430;48.818;9.244;2023-03-02T03:58:28;1.70;99.90
2447;DHT22;26430;48.818;9.244;2023-03-02T04:00:54;1.70;99.90
2447;DHT22;26430;48.818;9.244;2023-03-02T04:03:20;1.60;99.90
2447;DHT22;26430;48.818;9.244;2023-03-02T04:05:47;1.40;99.90
2447;DHT22;26430;48.818;9.244;2023-03-02T04:08:13;1.40;99.90
2447;DHT22;26430;48.818;9.244;2023-03-02T04:10:39;1.40;99.90
2447;DHT22;26430;48.818;9.244;2023-03-02T04:13:05;1.40;99.90
2447;DHT22;26430;48.818;9.244;2023-03-02T04:15:31;1.50;99.90
2447;DHT22;26430;48.818;9.244;2023-03-02T04:17:57;1.60;99.90
2447;DHT22;26430;48.818;9.244;2023-03-02T04:20:23;1.60;99.90
2447;DHT22;26430;48.818;9.244;2023-03-02T04:22:51;1.60;99.90
2447;DHT22;26430;48.818;9.244;2023-03-02T04:25:19;1.60;99.90
2447;DHT22;26430;48.818;9.244;2023-03-02T04:27:47;1.50;99.90
2447;DHT22;26430;48.818;9.244;2023-03-02T04:30:14;1.40;99.90
2447;DHT22;26430;48.818;9.244;2023-03-02T04:32:40;1.50;99.90
2447;DHT22;26430;48.818;9.244;2023-03-02T04:35:09;1.40;99.90
2447;DHT22;26430;48.818;9.244;2023-03-02T04:37:35;1.20;99.90
2447;DHT22;26430;48.818;9.244;2023-03-02T04:40:00;1.20;99.90
2447;DHT22;26430;48.818;9.244;2023-03-02T04:42:26;1.30;99.90
2447;DHT22;26430;48.818;9.244;2023-03-02T04:44:51;1.50;99.90
2447;DHT22;26430;48.818;9.244;2023-03-02T04:47:17;1.40;99.90
2447;DHT22;26430;48.818;9.244;2023-03-02T04:49:43;1.30;99.90
2447;DHT22;26430;48.818;9.244;2023-03-02T04:52:09;1.30;99.90
2447;DHT22;26430;48.818;9.244;2023-03-02T04:54:34;1.30;99.90
2447;DHT22;26430;48.818;9.244;2023-03-02T04:57:00;1.40;99.90
2447;DHT22;26430;48.818;9.244;2023-03-02T04:59:27;1.30;99.90
2447;DHT22;26430;48.818;9.244;2023-03-02T05:01:56;1.20;99.90
2447;DHT22;26430;48.818;9.244;2023-03-02T05:04:21;1.20;99.90
2447;DHT22;26430;48.818;9.244;2023-03-02T05:06:47;1.20;99.90
2447;DHT22;26430;48.818;9.244;2023-03-02T05:09:14;1.10;99.90
2447;DHT22;26430;48.818;9.244;2023-03-02T05:11:39;1.10;99.90
2447;DHT22;26430;48.818;9.244;2023-03-02T05:14:08;1.10;99.90
2447;DHT22;26430;48.818;9.244;2023-03-02T05:16:36;1.20;99.90
2447;DHT22;26430;48.818;9.244;2023-03-02T05:19:03;1.10;99.90
2447;DHT22;26430;48.818;9.244;2023-03-02T05:21:29;1.20;99.90
2447;DHT22;26430;48.818;9.244;2023-03-02T05:23:56;1.00;99.90
2447;DHT22;26430;48.818;9.244;2023-03-02T05:26:22;1.20;99.90
2447;DHT22;26430;48.818;9.244;2023-03-02T05:28:48;1.10;99.90
2447;DHT22;26430;48.818;9.244;2023-03-02T05:31:37;1.10;99.90
2447;DHT22;26430;48.818;9.244;2023-03-02T05:34:05;1.00;99.90
2447;DHT22;26430;48.818;9.244;2023-03-02T05:36:31;0.90;99.90
2447;DHT22;26430;48.818;9.244;2023-03-02T05:38:57;0.90;99.90
2447;DHT22;26430;48.818;9.244;2023-03-02T05:41:23;0.80;99.90
2447;DHT22;26430;48.818;9.244;2023-03-02T05:43:49;0.80;99.90
2447;DHT22;26430;48.818;9.244;2023-03-02T05:46:15;0.80;99.90
2447;DHT22;26430;48.818;9.244;2023-03-02T05:48:41;0.80;99.90
2447;DHT22;26430;48.818;9.244;2023-03-02T05:51:07;0.80;99.90
2447;DHT22;26430;48.818;9.244;2023-03-02T05:53:33;0.80;99.90
2447;DHT22;26430;48.818;9.244;2023-03-02T05:55:59;0.70;99.90
2447;DHT22;26430;48.818;9.244;2023-03-02T05:58:24;0.70;99.90
2447;DHT22;26430;48.818;9.244;2023-03-02T06:00:50;0.70;99.90
2447;DHT22;26430;48.818;9.244;2023-03-02T06:03:16;0.70;99.90
2447;DHT22;26430;48.818;9.244;2023-03-02T06:05:42;0.70;99.90
2447;DHT22;26430;48.818;9.244;2023-03-02T06:08:07;0.70;99.90
2447;DHT22;26430;48.818;9.244;2023-03-02T06:10:33;0.70;99.90
2447;DHT22;26430;48.818;9.244;2023-03-02T06:12:59;0.70;99.90
2447;DHT22;26430;48.818;9.244;2023-03-02T06:15:25;0.70;99.90
2447;DHT22;26430;48.818;9.244;2023-03-02T06:17:54;0.70;99.90
2447;DHT22;26430;48.818;9.244;2023-03-02T06:20:20;0.80;99.90
2447;DHT22;26430;48.818;9.244;2023-03-02T06:22:46;0.80;99.90
2447;DHT22;26430;48.818;9.244;2023-03-02T06:25:14;0.80;99.90
2447;DHT22;26430;48.818;9.244;2023-03-02T06:27:40;0.80;99.90
2447;DHT22;26430;48.818;9.244;2023-03-02T06:30:07;0.90;99.90
2447;DHT22;26430;48.818;9.244;2023-03-02T06:32:34;0.90;99.90
2447;DHT22;26430;48.818;9.244;2023-03-02T06:35:00;0.90;99.90
2447;DHT22;26430;48.818;9.244;2023-03-02T06:37:30;1.00;99.90
2447;DHT22;26430;48.818;9.244;2023-03-02T06:39:56;1.00;99.90
2447;DHT22;26430;48.818;9.244;2023-03-02T06:42:23;1.00;99.90
2447;DHT22;26430;48.818;9.244;2023-03-02T06:44:49;1.10;99.90
2447;DHT22;26430;48.818;9.244;2023-03-02T06:47:17;1.10;99.90
2447;DHT22;26430;48.818;9.244;2023-03-02T06:49:43;1.10;99.90
2447;DHT22;26430;48.818;9.244;2023-03-02T06:52:08;1.10;99.90
2447;DHT22;26430;48.818;9.244;2023-03-02T06:54:35;1.10;99.90
2447;DHT22;26430;48.818;9.244;2023-03-02T06:57:01;1.10;99.90
2447;DHT22;26430;48.818;9.244;2023-03-02T06:59:27;1.10;99.90
2447;DHT22;26430;48.818;9.244;2023-03-02T07:01:53;1.00;99.90
2447;DHT22;26430;48.818;9.244;2023-03-02T07:04:18;1.00;99.90
2447;DHT22;26430;48.818;9.244;2023-03-02T07:06:44;1.00;99.90
2447;DHT22;26430;48.818;9.244;2023-03-02T07:09:10;1.00;99.90
2447;DHT22;26430;48.818;9.244;2023-03-02T07:11:35;1.10;99.90
2447;DHT22;26430;48.818;9.244;2023-03-02T07:14:02;1.00;99.90
2447;DHT22;26430;48.818;9.244;2023-03-02T07:16:27;1.10;99.90
2447;DHT22;26430;48.818;9.244;2023-03-02T07:18:54;1.10;99.90
2447;DHT22;26430;48.818;9.244;2023-03-02T07:21:20;1.10;99.90
2447;DHT22;26430;48.818;9.244;2023-03-02T07:23:46;1.20;99.90
2447;DHT22;26430;48.818;9.244;2023-03-02T07:26:11;1.30;99.90
2447;DHT22;26430;48.818;9.244;2023-03-02T07:28:38;1.20;99.90
2447;DHT22;26430;48.818;9.244;2023-03-02T07:31:05;1.20;99.90
2447;DHT22;26430;48.818;9.244;2023-03-02T07:33:32;1.30;99.90
2447;DHT22;26430;48.818;9.244;2023-03-02T07:35:58;1.30;99.90
2447;DHT22;26430;48.818;9.244;2023-03-02T07:38:23;1.40;99.90
2447;DHT22;26430;48.818;9.244;2023-03-02T07:40:49;1.40;99.90
2447;DHT22;26430;48.818;9.244;2023-03-02T07:43:16;1.50;99.90
2447;DHT22;26430;48.818;9.244;2023-03-02T07:45:41;1.50;99.90
2447;DHT22;26430;48.818;9.244;2023-03-02T07:48:07;1.50;99.90
2447;DHT22;26430;48.818;9.244;2023-03-02T07:50:33;1.60;99.90
2447;DHT22;26430;48.818;9.244;2023-03-02T07:52:59;1.70;99.90
2447;DHT22;26430;48.818;9.244;2023-03-02T07:55:24;1.70;99.90
2447;DHT22;26430;48.818;9.244;2023-03-02T07:57:50;1.80;99.90
2447;DHT22;26430;48.818;9.244;2023-03-02T08:00:16;1.90;99.90
2447;DHT22;26430;48.818;9.244;2023-03-02T08:02:42;2.00;99.90
2447;DHT22;26430;48.818;9.244;2023-03-02T08:05:09;2.10;99.90
2447;DHT22;26430;48.818;9.244;2023-03-02T08:07:35;2.20;99.90
2447;DHT22;26430;48.818;9.244;2023-03-02T08:10:01;2.30;99.90
2447;DHT22;26430;48.818;9.244;2023-03-02T08:12:27;2.40;99.90
2447;DHT22;26430;48.818;9.244;2023-03-02T08:14:53;2.50;99.90
2447;DHT22;26430;48.818;9.244;2023-03-02T08:17:19;2.60;99.90
2447;DHT22;26430;48.818;9.244;2023-03-02T08:19:46;2.60;99.90
2447;DHT22;26430;48.818;9.244;2023-03-02T08:22:11;2.70;99.90
2447;DHT22;26430;48.818;9.244;2023-03-02T08:24:37;2.80;99.90
2447;DHT22;26430;48.818;9.244;2023-03-02T08:27:04;2.90;99.90
2447;DHT22;26430;48.818;9.244;2023-03-02T08:29:30;3.00;99.90
2447;DHT22;26430;48.818;9.244;2023-03-02T08:31:56;3.10;99.90
2447;DHT22;26430;48.818;9.244;2023-03-02T08:34:23;3.20;99.90
2447;DHT22;26430;48.818;9.244;2023-03-02T08:36:49;3.30;99.90
2447;DHT22;26430;48.818;9.244;2023-03-02T08:39:15;3.30;99.90
2447;DHT22;26430;48.818;9.244;2023-03-02T08:41:41;3.40;99.90
2447;DHT22;26430;48.818;9.244;2023-03-02T08:44:06;3.50;99.90
2447;DHT22;26430;48.818;9.244;2023-03-02T08:46:33;3.60;99.90
2447;DHT22;26430;48.818;9.244;2023-03-02T08:48:59;3.60;99.90
2447;DHT22;26430;48.818;9.244;2023-03-02T08:51:25;3.80;99.90
2447;DHT22;26430;48.818;9.244;2023-03-02T08:53:53;4.00;99.90
2447;DHT22;26430;48.818;9.244;2023-03-02T08:56:29;4.30;99.90
2447;DHT22;26430;48.818;9.244;2023-03-02T08:58:59;4.40;99.90
2447;DHT22;26430;48.818;9.244;2023-03-02T09:01:28;4.50;99.90
2447;DHT22;26430;48.818;9.244;2023-03-02T09:03:55;4.50;99.90
2447;DHT22;26430;48.818;9.244;2023-03-02T09:06:21;4.60;99.90
2447;DHT22;26430;48.818;9.244;2023-03-02T09:08:48;4.80;99.90
2447;DHT22;26430;48.818;9.244;2023-03-02T09:11:15;4.80;99.90
2447;DHT22;26430;48.818;9.244;2023-03-02T09:13:41;4.80;99.90
2447;DHT22;26430;48.818;9.244;2023-03-02T09:16:07;5.00;99.90
2447;DHT22;26430;48.818;9.244;2023-03-02T09:18:34;5.10;99.90
2447;DHT22;26430;48.818;9.244;2023-03-02T09:20:59;5.20;99.90
2447;DHT22;26430;48.818;9.244;2023-03-02T09:23:26;5.40;99.90
2447;DHT22;26430;48.818;9.244;2023-03-02T09:25:52;5.60;99.90
2447;DHT22;26430;48.818;9.244;2023-03-02T09:28:18;5.80;99.90
2447;DHT22;26430;48.818;9.244;2023-03-02T09:30:54;6.20;99.90
2447;DHT22;26430;48.818;9.244;2023-03-02T09:33:21;6.60;99.90
2447;DHT22;26430;48.818;9.244;2023-03-02T09:35:47;7.20;99.90
2447;DHT22;26430;48.818;9.244;2023-03-02T09:38:14;7.90;99.90
2447;DHT22;26430;48.818;9.244;2023-03-02T09:41:22;8.50;99.90
2447;DHT22;26430;48.818;9.244;2023-03-02T09:44:28;9.10;99.90
2447;DHT22;26430;48.818;9.244;2023-03-02T09:47:02;9.70;99.90
2447;DHT22;26430;48.818;9.244;2023-03-02T09:49:54;10.00;99.90
2447;DHT22;26430;48.818;9.244;2023-03-02T09:52:36;10.70;99.90
2447;DHT22;26430;48.818;9.244;2023-03-02T09:55:19;10.80;99.90
2447;DHT22;26430;48.818;9.244;2023-03-02T09:57:46;11.40;99.90
2447;DHT22;26430;48.818;9.244;2023-03-02T10:00:29;12.00;99.90
2447;DHT22;26430;48.818;9.244;2023-03-02T10:03:01;12.30;99.90
2447;DHT22;26430;48.818;9.244;2023-03-02T10:05:39;12.70;99.10
2447;DHT22;26430;48.818;9.244;2023-03-02T10:08:14;12.30;98.30
2447;DHT22;26430;48.818;9.244;2023-03-02T10:10:44;12.40;97.30
2447;DHT22;26430;48.818;9.244;2023-03-02T10:13:21;12.60;97.10
2447;DHT22;26430;48.818;9.244;2023-03-02T10:18:36;13.20;95.20
2447;DHT22;26430;48.818;9.244;2023-03-02T10:21:10;13.30;94.50
2447;DHT22;26430;48.818;9.244;2023-03-02T10:24:10;13.40;94.10
2447;DHT22;26430;48.818;9.244;2023-03-02T10:26:46;13.90;92.20
2447;DHT22;26430;48.818;9.244;2023-03-02T10:29:38;13.80;91.70
2447;DHT22;26430;48.818;9.244;2023-03-02T10:34:45;13.60;91.60
2447;DHT22;26430;48.818;9.244;2023-03-02T10:37:24;12.90;92.40
2447;DHT22;26430;48.818;9.244;2023-03-02T10:39:54;11.80;94.20
2447;DHT22;26430;48.818;9.244;2023-03-02T10:42:27;12.60;92.80
2447;DHT22;26430;48.818;9.244;2023-03-02T10:45:22;12.90;93.40
2447;DHT22;26430;48.818;9.244;2023-03-02T10:48:03;12.90;92.50
2447;DHT22;26430;48.818;9.244;2023-03-02T10:50:30;12.60;93.30
2447;DHT22;26430;48.818;9.244;2023-03-02T10:52:56;12.40;93.70
2447;DHT22;26430;48.818;9.244;2023-03-02T10:55:22;12.10;94.00
2447;DHT22;26430;48.818;9.244;2023-03-02T10:58:30;12.30;94.00
2447;DHT22;26430;48.818;9.244;2023-03-02T11:01:02;12.80;93.70
2447;DHT22;26430;48.818;9.244;2023-03-02T11:03:29;12.80;93.00
2447;DHT22;26430;48.818;9.244;2023-03-02T11:05:56;12.90;93.60
2447;DHT22;26430;48.818;9.244;2023-03-02T11:08:30;13.40;92.60
2447;DHT22;26430;48.818;9.244;2023-03-02T11:11:02;13.10;92.40
2447;DHT22;26430;48.818;9.244;2023-03-02T11:13:30;12.50;93.70
2447;DHT22;26430;48.818;9.244;2023-03-02T11:15:58;12.90;92.70
2447;DHT22;26430;48.818;9.244;2023-03-02T11:21:29;12.40;93.10
2447;DHT22;26430;48.818;9.244;2023-03-02T11:24:21;12.30;93.90
2447;DHT22;26430;48.818;9.244;2023-03-02T11:27:06;12.20;93.60
2447;DHT22;26430;48.818;9.244;2023-03-02T11:29:49;12.70;93.70
2447;DHT22;26430;48.818;9.244;2023-03-02T11:37:44;13.20;92.20
2447;DHT22;26430;48.818;9.244;2023-03-02T11:40:33;13.20;93.10
2447;DHT22;26430;48.818;9.244;2023-03-02T11:43:00;13.00;93.20
2447;DHT22;26430;48.818;9.244;2023-03-02T11:45:39;13.00;92.60
2447;DHT22;26430;48.818;9.244;2023-03-02T11:48:42;13.10;92.90
2447;DHT22;26430;48.818;9.244;2023-03-02T11:51:25;13.40;92.60
2447;DHT22;26430;48.818;9.244;2023-03-02T11:53:57;13.30;92.20
2447;DHT22;26430;48.818;9.244;2023-03-02T11:56:23;13.40;92.30
2447;DHT22;26430;48.818;9.244;2023-03-02T11:58:54;13.50;91.90
2447;DHT22;26430;48.818;9.244;2023-03-02T12:01:23;13.30;92.00
2447;DHT22;26430;48.818;9.244;2023-03-02T12:03:50;13.50;92.00
2447;DHT22;26430;48.818;9.244;2023-03-02T12:08:47;13.60;91.70
2447;DHT22;26430;48.818;9.244;2023-03-02T12:13:43;13.30;92.20
2447;DHT22;26430;48.818;9.244;2023-03-02T12:16:39;13.50;92.60
2447;DHT22;26430;48.818;9.244;2023-03-02T12:22:08;13.50;91.80
2447;DHT22;26430;48.818;9.244;2023-03-02T12:24:39;13.40;92.40
2447;DHT22;26430;48.818;9.244;2023-03-02T12:29:49;13.40;92.40
2447;DHT22;26430;48.818;9.244;2023-03-02T12:35:11;13.70;91.50
2447;DHT22;26430;48.818;9.244;2023-03-02T12:51:04;13.00;92.60
2447;DHT22;26430;48.818;9.244;2023-03-02T12:53:30;13.20;92.20
2447;DHT22;26430;48.818;9.244;2023-03-02T12:55:56;13.00;92.50
2447;DHT22;26430;48.818;9.244;2023-03-02T12:58:27;13.40;92.10
2447;DHT22;26430;48.818;9.244;2023-03-02T13:01:01;13.50;92.00
2447;DHT22;26430;48.818;9.244;2023-03-02T13:03:29;13.50;92.30
2447;DHT22;26430;48.818;9.244;2023-03-02T13:06:04;13.30;92.00
2447;DHT22;26430;48.818;9.244;2023-03-02T13:08:35;13.40;92.10
2447;DHT22;26430;48.818;9.244;2023-03-02T13:11:01;13.70;91.60
2447;DHT22;26430;48.818;9.244;2023-03-02T13:13:35;13.70;91.60
2447;DHT22;26430;48.818;9.244;2023-03-02T13:16:05;13.40;92.00
2447;DHT22;26430;48.818;9.244;2023-03-02T13:18:35;13.50;91.70
2447;DHT22;26430;48.818;9.244;2023-03-02T13:21:04;13.70;91.40
2447;DHT22;26430;48.818;9.244;2023-03-02T13:23:31;13.30;91.90
2447;DHT22;26430;48.818;9.244;2023-03-02T13:26:00;12.90;92.10
2447;DHT22;26430;48.818;9.244;2023-03-02T13:28:38;13.10;92.60
2447;DHT22;26430;48.818;9.244;2023-03-02T13:31:23;13.50;92.30
2447;DHT22;26430;48.818;9.244;2023-03-02T13:33:52;13.10;92.10
2447;DHT22;26430;48.818;9.244;2023-03-02T13:36:19;13.20;92.80
2447;DHT22;26430;48.818;9.244;2023-03-02T13:38:48;13.40;93.10
2447;DHT22;26430;48.818;9.244;2023-03-02T13:41:22;13.60;92.60
2447;DHT22;26430;48.818;9.244;2023-03-02T13:43:47;13.50;92.30
2447;DHT22;26430;48.818;9.244;2023-03-02T13:49:03;13.80;91.70
2447;DHT22;26430;48.818;9.244;2023-03-02T13:51:35;13.30;91.80
2447;DHT22;26430;48.818;9.244;2023-03-02T13:54:04;12.90;92.70
2447;DHT22;26430;48.818;9.244;2023-03-02T13:56:35;12.60;92.60
2447;DHT22;26430;48.818;9.244;2023-03-02T13:59:12;12.50;93.10
2447;DHT22;26430;48.818;9.244;2023-03-02T14:01:39;12.20;93.50
2447;DHT22;26430;48.818;9.244;2023-03-02T14:04:15;12.10;93.80
2447;DHT22;26430;48.818;9.244;2023-03-02T14:06:50;12.30;93.80
2447;DHT22;26430;48.818;9.244;2023-03-02T14:09:16;12.30;93.90
2447;DHT22;26430;48.818;9.244;2023-03-02T14:11:44;12.10;93.40
2447;DHT22;26430;48.818;9.244;2023-03-02T14:14:20;11.90;94.20
2447;DHT22;26430;48.818;9.244;2023-03-02T14:16:47;11.90;94.90
2447;DHT22;26430;48.818;9.244;2023-03-02T14:19:13;12.00;94.30
2447;DHT22;26430;48.818;9.244;2023-03-02T14:21:41;11.80;94.50
2447;DHT22;26430;48.818;9.244;2023-03-02T14:24:07;11.90;94.30
2447;DHT22;26430;48.818;9.244;2023-03-02T14:26:44;11.80;94.70
2447;DHT22;26430;48.818;9.244;2023-03-02T14:29:21;11.70;94.30
2447;DHT22;26430;48.818;9.244;2023-03-02T14:31:48;11.80;94.70
2447;DHT22;26430;48.818;9.244;2023-03-02T14:34:14;11.70;94.30
2447;DHT22;26430;48.818;9.244;2023-03-02T14:36:42;11.60;95.10
2447;DHT22;26430;48.818;9.244;2023-03-02T14:41:57;11.80;95.10
2447;DHT22;26430;48.818;9.244;2023-03-02T14:44:22;11.80;95.20
2447;DHT22;26430;48.818;9.244;2023-03-02T14:46:48;11.80;95.50
2447;DHT22;26430;48.818;9.244;2023-03-02T14:49:14;11.70;94.90
2447;DHT22;26430;48.818;9.244;2023-03-02T14:51:40;11.70;95.20
2447;DHT22;26430;48.818;9.244;2023-03-02T14:54:11;11.60;95.10
2447;DHT22;26430;48.818;9.244;2023-03-02T14:56:38;11.60;95.00
2447;DHT22;26430;48.818;9.244;2023-03-02T14:59:04;11.60;95.10
2447;DHT22;26430;48.818;9.244;2023-03-02T15:01:30;11.50;95.00
2447;DHT22;26430;48.818;9.244;2023-03-02T15:03:56;11.50;95.20
2447;DHT22;26430;48.818;9.244;2023-03-02T15:06:23;11.60;95.70
2447;DHT22;26430;48.818;9.244;2023-03-02T15:08:50;11.50;95.20
2447;DHT22;26430;48.818;9.244;2023-03-02T15:11:16;11.50;95.50
2447;DHT22;26430;48.818;9.244;2023-03-02T15:13:41;11.30;95.90
2447;DHT22;26430;48.818;9.244;2023-03-02T15:16:09;11.30;95.80
2447;DHT22;26430;48.818;9.244;2023-03-02T15:18:36;11.40;95.80
2447;DHT22;26430;48.818;9.244;2023-03-02T15:21:02;11.40;95.70
2447;DHT22;26430;48.818;9.244;2023-03-02T15:23:28;11.40;95.70
2447;DHT22;26430;48.818;9.244;2023-03-02T15:26:03;11.50;96.80
2447;DHT22;26430;48.818;9.244;2023-03-02T15:28:29;11.60;95.90
2447;DHT22;26430;48.818;9.244;2023-03-02T15:30:54;11.70;95.60
2447;DHT22;26430;48.818;9.244;2023-03-02T15:33:20;11.60;95.80
2447;DHT22;26430;48.818;9.244;2023-03-02T15:35:55;11.60;96.00
2447;DHT22;26430;48.818;9.244;2023-03-02T15:38:20;11.70;96.00
2447;DHT22;26430;48.818;9.244;2023-03-02T15:40:46;11.50;96.30
2447;DHT22;26430;48.818;9.244;2023-03-02T15:43:12;11.30;96.20
2447;DHT22;26430;48.818;9.244;2023-03-02T15:45:43;11.20;96.40
2447;DHT22;26430;48.818;9.244;2023-03-02T15:48:09;11.10;96.70
2447;DHT22;26430;48.818;9.244;2023-03-02T15:50:35;11.10;96.50
2447;DHT22;26430;48.818;9.244;2023-03-02T15:53:00;11.10;96.70
2447;DHT22;26430;48.818;9.244;2023-03-02T15:55:26;11.20;96.70
2447;DHT22;26430;48.818;9.244;2023-03-02T15:57:52;11.10;97.10
2447;DHT22;26430;48.818;9.244;2023-03-02T16:00:18;11.10;96.90
2447;DHT22;26430;48.818;9.244;2023-03-02T16:02:47;11.00;97.00
2447;DHT22;26430;48.818;9.244;2023-03-02T16:05:13;11.10;96.90
2447;DHT22;26430;48.818;9.244;2023-03-02T16:07:38;11.00;97.00
2447;DHT22;26430;48.818;9.244;2023-03-02T16:10:04;10.90;97.20
2447;DHT22;26430;48.818;9.244;2023-03-02T16:12:31;10.80;97.60
2447;DHT22;26430;48.818;9.244;2023-03-02T16:14:57;10.80;97.70
2447;DHT22;26430;48.818;9.244;2023-03-02T16:17:22;10.80;97.70
2447;DHT22;26430;48.818;9.244;2023-03-02T16:19:48;10.70;97.50
2447;DHT22;26430;48.818;9.244;2023-03-02T16:22:14;10.60;97.90
2447;DHT22;26430;48.818;9.244;2023-03-02T16:24:39;10.50;98.20
2447;DHT22;26430;48.818;9.244;2023-03-02T16:27:05;10.40;98.40
2447;DHT22;26430;48.818;9.244;2023-03-02T16:29:31;10.20;98.90
2447;DHT22;26430;48.818;9.244;2023-03-02T16:31:57;10.20;99.00
2447;DHT22;26430;48.818;9.244;2023-03-02T16:34:23;10.20;98.80
2447;DHT22;26430;48.818;9.244;2023-03-02T16:36:48;10.00;99.00
2447;DHT22;26430;48.818;9.244;2023-03-02T16:39:14;9.90;99.90
2447;DHT22;26430;48.818;9.244;2023-03-02T16:41:41;9.80;99.90
2447;DHT22;26430;48.818;9.244;2023-03-02T16:44:09;9.80;99.90
2447;DHT22;26430;48.818;9.244;2023-03-02T16:46:36;9.70;99.90
2447;DHT22;26430;48.818;9.244;2023-03-02T16:49:04;9.70;99.90
2447;DHT22;26430;48.818;9.244;2023-03-02T16:51:29;9.70;99.90
2447;DHT22;26430;48.818;9.244;2023-03-02T16:53:57;9.70;99.90
2447;DHT22;26430;48.818;9.244;2023-03-02T16:56:22;9.60;99.90
2447;DHT22;26430;48.818;9.244;2023-03-02T16:58:48;9.50;99.90